Terminal Aerodrome Forecast
Issued by NWS

Home | Current Version | Previous Version | Text Only | Print | Product List | Glossary On
Versions: 1 2 3 4 5 6 7 8 9 10 11 12 13 14 15 16 17 18 19 20 21
000
FTUS42 KTAE 240200 AAA
TAFVLD
TAF AMD
KVLD 240208Z 2402/2424 05006KT P6SM BKN025
     FM240800 04008KT P6SM BKN012
      TEMPO 2408/2412 BKN007
     FM241300 04010KT P6SM BKN025
     FM241600 05007KT P6SM SCT040=

USA.gov is the U.S. government's official web portal to all federal, state and local government web resources and services.